Lincoln City, Oregon
Current Conditions -  °F | °C
As of 4:15 AM on Friday 21 Nov 2014 (Local Time) from KONP Reporting Station
Broken Clouds Broken Clouds  
Wind Chill: 12°   Ceiling: 4700
Heat Index: 12°   Visibility: 10mi
Dew Point:   Wind: 7mph
Humidity: 77%   Direction: 150°SSE
Pressure: 29.9"   Gusts: NA
Location:  44.93°N, 124.01°W
Report Text: KONP 211215Z AUTO 15006KT 10SM SCT024 SCT034 BKN047 12/08 A2990 RMK AO2
Loading
Personal Weather Stations






























Interactive Weather Map New forecast layout! Learn more

10-Day Weather Forecast

Advertisements
Track Severe Weather on mobile